Voorheesville, New York
Current Conditions -  °F | °C
As of 10:51 AM on Sunday 21 Dec 2014 (Local Time) from KALB Reporting Station
Light Snow Light Snow  
Wind Chill: 24°   Ceiling: 2800
Heat Index: 29°   Visibility: 6mi
Dew Point: 23°   Wind: 5mph
Humidity: 78%   Direction: 350°N
Pressure: 30.36"   Gusts: NA
Location:  42.65°N, 73.93°W
Report Text: KALB 211551Z 35004KT 6SM -SN BR FEW014 BKN028 OVC036 M02/M05 A3036 RMK AO2 SLP285 PCPN VRY LGT P0000 T10171050
Loading
Personal Weather Stations






























Interactive Weather Map New forecast layout! Learn more

10-Day Weather Forecast

Advertisements
Track Severe Weather on mobile